createdAt,value
2022-09-18T00:04:21.718Z,1.40
2022-09-18T00:09:23.420Z,1.60
2022-09-18T00:14:24.795Z,1.58
2022-09-18T00:19:26.211Z,2.08
2022-09-18T00:24:27.620Z,1.40
2022-09-18T00:29:29.090Z,1.75
2022-09-18T00:34:30.737Z,1.08
2022-09-18T00:39:32.230Z,1.48
2022-09-18T00:44:33.695Z,1.10
2022-09-18T00:49:36.453Z,0.82
2022-09-18T00:54:42.570Z,1.17
2022-09-18T00:59:46.390Z,0.90
2022-09-18T01:04:48.418Z,1.33
2022-09-18T01:09:58.981Z,1.20
2022-09-18T01:15:21.224Z,1.10
2022-09-18T01:20:25.745Z,0.93
2022-09-18T01:25:30.312Z,1.40
2022-09-18T01:30:32.675Z,1.20
2022-09-18T01:35:43.396Z,1.45
2022-09-18T01:40:48.013Z,1.13
2022-09-18T01:45:52.054Z,1.10
2022-09-18T01:51:06.276Z,1.02
2022-09-18T01:56:11.080Z,1.45
2022-09-18T02:01:15.087Z,1.25
2022-09-18T02:06:19.223Z,1.13
2022-09-18T02:11:21.440Z,1.38
2022-09-18T02:16:34.694Z,1.63
2022-09-18T02:21:36.980Z,1.75
2022-09-18T02:26:42.339Z,1.35
2022-09-18T02:31:44.184Z,1.45
2022-09-18T02:36:48.706Z,1.13
2022-09-18T02:41:57.052Z,1.20
2022-09-18T02:47:08.532Z,1.38
2022-09-18T02:52:10.036Z,1.27
2022-09-18T02:57:18.862Z,1.63
2022-09-18T03:02:23.753Z,1.30
2022-09-18T03:07:25.268Z,1.65
2022-09-18T03:12:26.819Z,1.45
2022-09-18T03:17:28.173Z,1.30
2022-09-18T03:22:29.541Z,1.98
2022-09-18T03:27:30.925Z,1.48
2022-09-18T03:32:32.433Z,1.77
2022-09-18T03:37:33.943Z,1.20
2022-09-18T03:42:35.357Z,1.30
2022-09-18T03:47:36.911Z,1.27
2022-09-18T03:52:38.579Z,1.10
2022-09-18T03:57:39.955Z,1.02
2022-09-18T04:02:41.669Z,1.38
2022-09-18T04:07:43.037Z,1.40
2022-09-18T04:12:44.786Z,1.25
2022-09-18T04:17:46.291Z,1.50
2022-09-18T04:22:47.687Z,1.60
2022-09-18T04:27:49.095Z,1.50
2022-09-18T04:32:50.439Z,1.58
2022-09-18T04:37:51.835Z,1.77
2022-09-18T04:42:53.195Z,1.42
2022-09-18T04:47:54.551Z,1.40
2022-09-18T04:52:56.210Z,1.60
2022-09-18T04:57:57.670Z,1.80
2022-09-18T05:02:59.055Z,1.20
2022-09-18T05:08:01.144Z,1.30
2022-09-18T05:13:03.491Z,1.20
2022-09-18T05:18:11.149Z,1.23
2022-09-18T05:23:13.470Z,1.20
2022-09-18T05:28:16.170Z,1.50
2022-09-18T05:33:17.532Z,1.80
2022-09-18T05:38:18.926Z,1.30
2022-09-18T05:43:20.303Z,1.10
2022-09-18T05:48:21.893Z,1.20
2022-09-18T05:53:23.351Z,1.30
2022-09-18T05:58:24.753Z,1.55
2022-09-18T06:03:26.243Z,1.77
2022-09-18T06:08:27.710Z,1.52
2022-09-18T06:13:29.024Z,1.30
2022-09-18T06:18:30.403Z,2.38
2022-09-18T06:23:32.022Z,1.50
2022-09-18T06:28:36.113Z,1.42
2022-09-18T06:33:37.665Z,1.20
2022-09-18T06:38:39.127Z,1.48
2022-09-18T06:43:40.496Z,1.40
2022-09-18T06:48:41.996Z,1.30
2022-09-18T06:53:43.422Z,1.17
2022-09-18T06:58:45.252Z,1.75
2022-09-18T07:03:49.968Z,1.52
2022-09-18T07:08:51.369Z,1.42
2022-09-18T07:13:54.204Z,1.45
2022-09-18T07:18:55.613Z,1.80
2022-09-18T07:23:57.160Z,1.23
2022-09-18T07:28:58.570Z,1.30
2022-09-18T07:34:00.274Z,1.55
2022-09-18T07:39:01.832Z,1.42
2022-09-18T07:44:04.022Z,1.20
2022-09-18T07:49:05.461Z,1.35
2022-09-18T07:54:07.003Z,1.60
2022-09-18T07:59:09.543Z,1.25
2022-09-18T08:04:11.000Z,1.20
2022-09-18T08:09:27.693Z,1.63
2022-09-18T08:14:29.939Z,1.77
2022-09-18T08:19:31.387Z,1.25
2022-09-18T08:24:33.184Z,1.20
2022-09-18T08:29:34.612Z,1.40
2022-09-18T08:34:36.033Z,2.10
2022-09-18T08:39:37.854Z,1.40
2022-09-18T08:44:42.699Z,1.48
2022-09-18T08:49:53.249Z,1.40
2022-09-18T08:55:01.160Z,1.35
2022-09-18T09:00:09.860Z,1.30
2022-09-18T09:05:15.777Z,1.30
2022-09-18T09:10:30.665Z,1.33
2022-09-18T09:15:43.787Z,1.27
2022-09-18T09:20:45.812Z,1.50
2022-09-18T09:26:07.640Z,1.23
2022-09-18T09:31:09.906Z,1.58
2022-09-18T09:36:14.289Z,1.40
2022-09-18T09:41:19.298Z,1.25
2022-09-18T09:46:29.998Z,1.20
2022-09-18T09:51:40.385Z,1.20
2022-09-18T09:56:51.660Z,1.35
2022-09-18T10:01:56.430Z,1.70
2022-09-18T10:07:16.844Z,1.40
2022-09-18T10:12:18.413Z,1.50
2022-09-18T10:17:21.479Z,1.30
2022-09-18T10:22:24.462Z,1.10
2022-09-18T10:27:25.938Z,1.35
2022-09-18T10:32:41.574Z,1.10
2022-09-18T10:37:43.481Z,1.13
2022-09-18T10:42:45.039Z,1.70
2022-09-18T10:47:46.569Z,1.27
2022-09-18T10:52:48.650Z,1.38
2022-09-18T10:57:50.035Z,1.15
2022-09-18T11:02:54.006Z,1.40
2022-09-18T11:07:57.418Z,1.40
2022-09-18T11:13:01.172Z,1.60
2022-09-18T11:18:04.883Z,1.70
2022-09-18T11:23:26.059Z,2.03
2022-09-18T11:28:28.692Z,1.90
2022-09-18T11:33:37.422Z,3.10
2022-09-18T11:38:45.014Z,2.33
2022-09-18T11:43:54.165Z,2.38
2022-09-18T11:48:56.340Z,1.33
2022-09-18T11:54:02.706Z,1.80
2022-09-18T11:59:11.977Z,1.50
2022-09-18T12:04:16.287Z,1.50
2022-09-18T12:09:24.177Z,1.50
2022-09-18T12:14:26.207Z,1.42
2022-09-18T12:19:39.790Z,1.45
2022-09-18T12:24:41.403Z,1.55
2022-09-18T12:29:52.149Z,1.70
2022-09-18T12:35:05.345Z,1.83
2022-09-18T12:40:30.949Z,1.83
2022-09-18T12:45:32.446Z,1.60
2022-09-18T12:50:33.925Z,1.60
2022-09-18T12:56:01.641Z,1.80
2022-09-18T13:01:07.763Z,1.50
2022-09-18T13:06:14.473Z,1.58
2022-09-18T13:11:22.053Z,1.58
2022-09-18T13:16:49.540Z,1.60
2022-09-18T13:21:52.557Z,1.23
2022-09-18T13:26:54.261Z,1.30
2022-09-18T13:31:56.409Z,1.45
2022-09-18T13:37:04.521Z,1.25
2022-09-18T13:42:06.025Z,1.02
2022-09-18T13:47:11.993Z,1.10
2022-09-18T13:52:32.280Z,1.13
2022-09-18T13:57:33.825Z,1.20
2022-09-18T14:02:39.521Z,1.13
2022-09-18T14:07:42.319Z,1.00
2022-09-18T14:13:00.865Z,1.30
2022-09-18T14:18:16.334Z,1.75
2022-09-18T14:23:36.255Z,1.95
2022-09-18T14:28:45.855Z,1.25
2022-09-18T14:33:47.763Z,1.00
2022-09-18T14:38:49.160Z,1.65
2022-09-18T14:43:55.943Z,1.77
2022-09-18T14:48:57.337Z,2.22
2022-09-18T14:53:59.334Z,1.40
2022-09-18T14:59:08.453Z,1.52
2022-09-18T15:04:14.757Z,1.30
2022-09-18T15:09:20.603Z,1.42
2022-09-18T15:14:31.066Z,1.23
2022-09-18T15:19:33.084Z,2.00
2022-09-18T15:24:34.460Z,2.35
2022-09-18T15:29:42.637Z,2.00
2022-09-18T15:34:47.231Z,1.95
2022-09-18T15:40:09.453Z,1.60
2022-09-18T15:45:18.652Z,1.50
2022-09-18T15:50:20.087Z,1.63
2022-09-18T15:55:23.479Z,2.42
2022-09-18T16:00:26.917Z,1.80
2022-09-18T16:05:30.100Z,1.60
2022-09-18T16:10:34.658Z,2.17
2022-09-18T16:15:36.163Z,2.08
2022-09-18T16:20:41.561Z,2.00
2022-09-18T16:25:43.714Z,2.15
2022-09-18T16:30:46.761Z,1.60
2022-09-18T16:35:54.916Z,2.30
2022-09-18T16:40:56.298Z,1.80
2022-09-18T16:45:57.722Z,1.60
2022-09-18T16:50:59.124Z,1.58
2022-09-18T16:56:01.952Z,1.60
2022-09-18T17:01:04.991Z,2.05
2022-09-18T17:06:06.544Z,2.22
2022-09-18T17:11:07.962Z,2.33
2022-09-18T17:16:09.936Z,1.90
2022-09-18T17:21:12.794Z,2.22
2022-09-18T17:26:14.253Z,2.25
2022-09-18T17:31:18.942Z,1.90
2022-09-18T17:36:20.820Z,3.05
2022-09-18T17:41:22.217Z,2.13
2022-09-18T17:46:23.643Z,2.28
2022-09-18T17:51:28.610Z,2.20
2022-09-18T17:56:31.711Z,2.67
2022-09-18T18:01:36.346Z,2.13
2022-09-18T18:06:37.895Z,2.10
2022-09-18T18:11:39.283Z,2.35
2022-09-18T18:16:41.444Z,2.53
2022-09-18T18:21:43.118Z,2.80
2022-09-18T18:26:45.771Z,2.70
2022-09-18T18:31:49.155Z,2.28
2022-09-18T18:36:50.658Z,2.97
2022-09-18T18:41:52.000Z,3.63
2022-09-18T18:46:53.428Z,2.35
2022-09-18T18:51:55.088Z,2.00
2022-09-18T18:56:56.517Z,1.80
2022-09-18T19:01:58.980Z,2.05
2022-09-18T19:07:00.512Z,2.22
2022-09-18T19:12:02.113Z,2.47
2022-09-18T19:17:03.886Z,2.70
2022-09-18T19:22:05.288Z,2.22
2022-09-18T19:27:06.873Z,3.10
2022-09-18T19:32:09.203Z,3.30
2022-09-18T19:37:12.089Z,2.63
2022-09-18T19:42:14.966Z,2.60
2022-09-18T19:47:19.109Z,2.33
2022-09-18T19:52:21.541Z,2.40
2022-09-18T19:57:23.780Z,2.50
2022-09-18T20:02:25.483Z,2.15
2022-09-18T20:07:26.875Z,2.25
2022-09-18T20:12:28.953Z,2.75
2022-09-18T20:17:32.280Z,2.45
2022-09-18T20:22:37.271Z,2.20
2022-09-18T20:27:40.080Z,2.67
2022-09-18T20:32:41.737Z,2.10
2022-09-18T20:37:43.085Z,2.92
2022-09-18T20:42:45.449Z,2.92
2022-09-18T20:47:47.238Z,2.60
2022-09-18T20:52:48.883Z,2.75
2022-09-18T20:57:50.699Z,2.15
2022-09-18T21:02:53.254Z,3.00
2022-09-18T21:08:03.775Z,2.42
2022-09-18T21:13:07.079Z,3.13
2022-09-18T21:18:09.909Z,3.03
2022-09-18T21:23:30.540Z,2.40
2022-09-18T21:28:31.875Z,2.30
2022-09-18T21:33:36.573Z,3.03
2022-09-18T21:38:39.981Z,2.28
2022-09-18T21:43:47.896Z,2.55
2022-09-18T21:48:52.930Z,2.17
2022-09-18T21:53:54.261Z,2.75
2022-09-18T21:58:55.618Z,1.85
2022-09-18T22:03:59.112Z,2.38
2022-09-18T22:09:00.558Z,2.25
2022-09-18T22:14:03.864Z,2.17
2022-09-18T22:19:08.254Z,1.80
2022-09-18T22:24:11.160Z,2.15
2022-09-18T22:29:19.826Z,2.40
2022-09-18T22:34:23.253Z,2.20
2022-09-18T22:39:24.810Z,2.20
2022-09-18T22:44:26.193Z,2.30
2022-09-18T22:49:27.523Z,2.65
2022-09-18T22:54:28.950Z,2.13
2022-09-18T22:59:30.287Z,1.90
2022-09-18T23:04:33.656Z,2.10
2022-09-18T23:09:35.277Z,2.22
2022-09-18T23:14:36.599Z,2.13
2022-09-18T23:19:37.958Z,1.90
2022-09-18T23:24:39.370Z,1.60
2022-09-18T23:29:41.156Z,2.13
2022-09-18T23:34:42.557Z,2.15
2022-09-18T23:39:43.897Z,2.13
2022-09-18T23:44:45.424Z,2.55
2022-09-18T23:49:46.857Z,2.53
2022-09-18T23:54:48.196Z,2.03
2022-09-18T23:59:49.736Z,1.92
